Time;durP1;ratioP1;P1;durP2;ratioP2;P2;SDS_P1;SDS_P2;PMS_P1;PMS_P2;Temp;Humidity;BMP_temperature;BMP_pressure;BME280_temperature;BME280_humidity;BME280_pressure;Samples;Min_cycle;Max_cycle;Signal;HPM_P1;HPM_P2
2023/10/22 00:00:21;;;;;;;0.05;0.05;;;;;;;12.36;74.54;91960.09;2038713;70;20684;-74
2023/10/22 00:02:48;;;;;;;0.13;0.13;;;;;;;12.51;74.04;91971.97;2038390;70;20171;-75
2023/10/22 00:05:14;;;;;;;0.17;0.10;;;;;;;12.44;74.59;91974.56;2040922;70;20168;-75
2023/10/22 00:07:40;;;;;;;0.20;0.10;;;;;;;12.50;74.13;91982.56;2038470;70;20179;-74
2023/10/22 00:10:07;;;;;;;0.20;0.20;;;;;;;12.26;74.57;91973.78;2038785;70;20679;-75
2023/10/22 00:12:34;;;;;;;0.55;0.10;;;;;;;12.42;74.41;91982.22;2038470;70;20166;-74
2023/10/22 00:15:01;;;;;;;0.52;0.17;;;;;;;12.40;75.19;91985.69;2038811;70;20215;-74
2023/10/22 00:17:27;;;;;;;0.20;0.10;;;;;;;12.36;76.00;91993.97;2038885;70;20154;-76
2023/10/22 00:19:53;;;;;;;0.22;0.13;;;;;;;12.43;75.24;91992.16;2038883;70;20215;-74
2023/10/22 00:22:23;;;;;;;2.45;0.20;;;;;;;12.38;75.82;92005.34;2038410;70;20155;-75
2023/10/22 00:24:52;;;;;;;0.20;0.10;;;;;;;12.32;75.59;92002.25;2040903;70;20252;-75
2023/10/22 00:27:18;;;;;;;0.22;0.20;;;;;;;12.37;75.74;92001.09;2038724;70;20231;-75
2023/10/22 00:29:49;;;;;;;1.50;0.40;;;;;;;12.30;75.70;92007.81;2038728;70;20147;-76
2023/10/22 00:32:17;;;;;;;0.28;0.20;;;;;;;12.34;76.07;92010.81;2039113;70;20155;-75
2023/10/22 00:34:44;;;;;;;1.25;0.20;;;;;;;12.32;75.98;92005.09;2040939;70;20535;-74
2023/10/22 00:37:13;;;;;;;0.20;0.20;;;;;;;12.34;75.94;91999.53;2038839;70;20144;-75
2023/10/22 00:39:41;;;;;;;0.20;0.20;;;;;;;12.36;75.60;92010.91;2041284;70;20700;-75
2023/10/22 00:42:11;;;;;;;0.38;0.10;;;;;;;12.35;76.04;92009.44;2040678;70;20196;-75
2023/10/22 00:44:39;;;;;;;0.50;0.20;;;;;;;12.27;76.05;92009.09;2038511;70;20143;-75
2023/10/22 00:47:08;;;;;;;0.20;0.20;;;;;;;12.23;75.83;92000.44;2038674;70;20251;-75
2023/10/22 00:49:34;;;;;;;0.17;0.10;;;;;;;12.27;75.94;92023.22;2038516;70;20165;-75
2023/10/22 00:52:00;;;;;;;0.20;0.10;;;;;;;12.28;76.48;92021.88;2038405;70;20390;-74
2023/10/22 00:54:27;;;;;;;0.30;0.10;;;;;;;12.24;76.52;92032.97;2043608;70;20167;-75
2023/10/22 00:56:55;;;;;;;0.10;0.10;;;;;;;12.19;76.81;92023.59;2045420;70;20147;-75
2023/10/22 00:59:22;;;;;;;0.10;0.10;;;;;;;12.21;76.73;92037.06;2041649;70;20147;-74
2023/10/22 01:01:50;;;;;;;0.08;0.08;;;;;;;12.22;77.31;92041.34;2045470;70;20139;-76
2023/10/22 01:04:18;;;;;;;0.57;0.20;;;;;;;12.34;75.92;92044.69;2045048;70;20496;-76
2023/10/22 01:06:46;;;;;;;1.17;0.10;;;;;;;12.10;76.34;92038.00;2041986;70;20614;-76
2023/10/22 01:09:16;;;;;;;0.43;0.17;;;;;;;11.92;77.63;92044.25;2045442;70;20187;-76
2023/10/22 01:12:09;;;;;;;0.10;0.10;;;;;;;12.06;76.83;92051.91;2045078;70;20139;-75
2023/10/22 01:14:41;;;;;;;0.38;0.30;;;;;;;12.06;76.68;92034.97;2044956;70;20147;-75
2023/10/22 01:17:10;;;;;;;0.40;0.20;;;;;;;12.15;76.29;92045.25;2045571;70;20171;-75
2023/10/22 01:19:43;;;;;;;;;;;;;;;12.17;76.68;92045.34;2045264;70;20565;-76
2023/10/22 01:22:14;;;;;;;0.85;0.30;;;;;;;11.91;75.99;92019.50;2045511;70;20079;-75
2023/10/22 01:24:45;;;;;;;0.50;0.10;;;;;;;11.58;74.50;92014.44;2042300;70;20197;-76
2023/10/22 01:27:16;;;;;;;0.35;0.10;;;;;;;11.89;75.23;92067.34;2045443;70;20518;-77
2023/10/22 01:29:49;;;;;;;0.35;0.20;;;;;;;11.90;75.32;92061.06;2045609;70;20177;-76
2023/10/22 01:32:30;;;;;;;0.10;0.10;;;;;;;12.00;74.88;92063.63;2045376;70;20143;-76
2023/10/22 01:35:06;;;;;;;1.35;0.17;;;;;;;11.94;75.15;92072.53;2045503;70;20226;-77
2023/10/22 01:37:44;;;;;;;0.88;0.28;;;;;;;11.79;75.87;92067.59;2045177;70;20167;-75
2023/10/22 01:40:16;;;;;;;1.35;0.30;;;;;;;11.78;75.37;92057.69;2042380;70;20190;-75
2023/10/22 01:42:43;;;;;;;0.30;0.20;;;;;;;11.24;75.90;91982.59;2045070;70;20627;-74
2023/10/22 01:45:10;;;;;;;0.77;0.30;;;;;;;11.80;75.93;92069.06;2045992;70;20217;-76
2023/10/22 01:47:41;;;;;;;2.42;0.30;;;;;;;11.85;74.64;92067.16;2046202;70;20143;-76
2023/10/22 01:50:10;;;;;;;1.23;0.20;;;;;;;11.82;75.29;92072.00;2046241;70;20139;-76
2023/10/22 01:52:40;;;;;;;2.08;0.30;;;;;;;11.79;75.78;92078.16;2046030;70;20135;-75
2023/10/22 01:55:13;;;;;;;0.65;0.20;;;;;;;11.89;74.12;92076.56;2045458;70;20167;-75
2023/10/22 01:57:46;;;;;;;0.20;0.20;;;;;;;11.78;75.93;92068.25;2045890;70;20143;-75
2023/10/22 02:00:44;;;;;;;0.40;0.20;;;;;;;11.77;75.70;92070.31;2045476;70;20234;-75
2023/10/22 02:03:10;;;;;;;0.57;0.32;;;;;;;11.73;76.01;92072.97;2045661;70;20515;-76
2023/10/22 02:05:37;;;;;;;0.15;0.13;;;;;;;11.65;75.91;92073.31;2042780;70;20265;-74
2023/10/22 02:08:03;;;;;;;0.13;0.13;;;;;;;11.60;76.86;92065.31;2046141;70;20695;-75
2023/10/22 02:10:30;;;;;;;2.78;0.20;;;;;;;11.62;77.21;92059.75;2045548;70;20238;-75
2023/10/22 02:12:56;;;;;;;1.55;0.20;;;;;;;11.61;76.60;92061.13;2045553;70;20609;-74
2023/10/22 02:15:23;;;;;;;0.15;0.15;;;;;;;11.54;77.49;92062.19;2045616;70;20155;-76
2023/10/22 02:17:49;;;;;;;1.35;0.32;;;;;;;11.50;76.75;92056.34;2046335;70;20130;-74
2023/10/22 02:20:14;;;;;;;0.30;0.10;;;;;;;11.38;77.06;92033.97;2050425;64;20143;-75
2023/10/22 02:22:41;;;;;;;1.38;0.22;;;;;;;11.48;76.71;92064.72;2045161;70;20142;-75
2023/10/22 02:25:07;;;;;;;0.30;0.10;;;;;;;11.41;76.71;92063.72;2045445;70;20614;-74
2023/10/22 02:27:33;;;;;;;0.55;0.20;;;;;;;11.47;76.76;92072.44;2047927;70;20452;-74
2023/10/22 02:30:00;;;;;;;0.80;0.20;;;;;;;11.48;77.21;92081.63;2045225;70;20160;-74
2023/10/22 02:32:26;;;;;;;0.20;0.20;;;;;;;11.51;76.88;92077.56;2046084;70;20955;-74
2023/10/22 02:34:52;;;;;;;0.38;0.30;;;;;;;11.50;77.45;92070.44;2045159;70;20150;-75
2023/10/22 02:37:19;;;;;;;0.20;0.20;;;;;;;11.56;76.45;92065.84;2047981;70;20179;-75
2023/10/22 02:39:45;;;;;;;0.20;0.20;;;;;;;11.39;77.00;92074.88;2044945;70;20155;-75
2023/10/22 02:42:11;;;;;;;1.15;0.30;;;;;;;11.12;78.00;92070.78;2045098;70;20227;-75
2023/10/22 02:44:37;;;;;;;0.47;0.22;;;;;;;11.28;77.74;92067.31;2047665;70;20174;-76
2023/10/22 02:47:04;;;;;;;1.33;0.20;;;;;;;11.44;76.25;92082.88;2047943;70;20206;-75
2023/10/22 02:49:30;;;;;;;0.95;0.20;;;;;;;11.35;77.92;92081.03;2045068;70;20578;-74
2023/10/22 02:51:56;;;;;;;0.17;0.17;;;;;;;11.34;77.77;92082.41;2047895;70;20514;-75
2023/10/22 02:54:21;;;;;;;0.13;0.10;;;;;;;11.49;76.60;92085.91;2045098;70;20628;-75
2023/10/22 02:56:47;;;;;;;0.10;0.10;;;;;;;11.36;77.43;92084.59;2045866;70;20199;-74
2023/10/22 02:59:14;;;;;;;0.13;0.10;;;;;;;11.40;76.67;92093.97;2047981;70;20230;-75
2023/10/22 03:01:40;;;;;;;0.90;0.20;;;;;;;11.41;77.23;92092.63;2047924;70;20165;-75
2023/10/22 03:04:09;;;;;;;0.30;0.10;;;;;;;11.35;77.31;92085.97;2047891;70;20150;-75
2023/10/22 03:06:34;;;;;;;0.10;0.10;;;;;;;11.34;77.19;92081.69;2045806;70;20131;-76
2023/10/22 03:09:00;;;;;;;0.10;0.10;;;;;;;11.36;76.85;92078.94;2047720;70;20166;-74
2023/10/22 03:11:26;;;;;;;3.03;0.10;;;;;;;11.33;76.61;92086.59;2047662;70;20254;-76
2023/10/22 03:13:52;;;;;;;0.10;0.10;;;;;;;11.31;77.48;92094.22;2047964;70;20162;-75
2023/10/22 03:16:17;;;;;;;0.28;0.10;;;;;;;11.30;76.87;92087.84;2042335;70;20167;-74
2023/10/22 03:18:45;;;;;;;0.35;0.20;;;;;;;11.29;76.81;92092.03;2047689;70;20214;-75
2023/10/22 03:21:24;;;;;;;0.10;0.10;;;;;;;11.26;77.18;92086.91;2048099;70;20191;-75
2023/10/22 03:23:49;;;;;;;1.00;0.10;;;;;;;11.25;76.92;92079.84;2045732;70;20143;-75
2023/10/22 03:26:16;;;;;;;0.63;0.10;;;;;;;11.23;76.79;92082.56;2045657;70;20202;-74
2023/10/22 03:28:43;;;;;;;0.73;0.10;;;;;;;11.12;76.96;92079.25;2045177;70;20171;-76
2023/10/22 03:31:09;;;;;;;0.10;0.00;;;;;;;11.04;77.13;92075.28;2045319;70;20147;-75
2023/10/22 03:33:34;;;;;;;0.13;0.13;;;;;;;11.16;76.76;92087.16;2045472;70;20218;-75
2023/10/22 03:36:01;;;;;;;0.00;0.00;;;;;;;11.15;77.20;92094.16;2045551;70;20315;-75
2023/10/22 03:38:27;;;;;;;0.40;0.20;;;;;;;11.06;77.28;92093.03;2046156;70;20151;-76
2023/10/22 03:40:58;;;;;;;0.35;0.10;;;;;;;10.87;77.06;92054.81;2045508;70;20143;-76
2023/10/22 03:43:28;;;;;;;0.22;0.20;;;;;;;11.21;76.94;92100.09;2045824;70;20158;-77
2023/10/22 03:45:57;;;;;;;0.10;0.10;;;;;;;11.20;77.09;92104.28;2045746;70;20192;-76
2023/10/22 03:48:24;;;;;;;0.30;0.20;;;;;;;11.15;77.06;92099.78;2045145;70;20182;-75
2023/10/22 03:50:50;;;;;;;1.20;0.10;;;;;;;11.19;76.67;92105.63;2048189;70;20144;-76
2023/10/22 03:53:16;;;;;;;0.20;0.20;;;;;;;11.17;77.55;92100.59;2045955;70;20490;-76
2023/10/22 03:55:43;;;;;;;0.20;0.20;;;;;;;11.16;77.18;92099.16;2046136;70;20604;-77
2023/10/22 03:58:10;;;;;;;1.67;0.15;;;;;;;11.17;77.54;92102.69;2045782;70;20131;-75
2023/10/22 04:00:36;;;;;;;0.52;0.52;;;;;;;11.14;78.29;92106.78;2042705;70;20218;-76
2023/10/22 04:03:02;;;;;;;0.35;0.20;;;;;;;11.08;77.48;92115.66;2045798;70;20154;-76
2023/10/22 04:05:28;;;;;;;1.85;0.25;;;;;;;11.09;76.96;92114.31;2046026;70;20566;-75
2023/10/22 04:07:53;;;;;;;0.40;0.20;;;;;;;11.13;77.37;92120.16;2046265;70;20537;-75
2023/10/22 04:10:19;;;;;;;0.32;0.30;;;;;;;11.16;77.23;92121.69;2045941;70;20134;-76
2023/10/22 04:12:45;;;;;;;3.13;0.40;;;;;;;11.00;78.66;92120.19;2046016;70;20154;-76
2023/10/22 04:15:11;;;;;;;0.52;0.30;;;;;;;11.04;78.01;92123.19;2045491;70;20253;-77
2023/10/22 04:17:37;;;;;;;0.30;0.30;;;;;;;11.06;78.22;92126.84;2045973;70;20525;-76
2023/10/22 04:20:03;;;;;;;0.25;0.10;;;;;;;10.99;78.71;92133.50;2045699;70;20645;-76
2023/10/22 04:22:29;;;;;;;0.20;0.20;;;;;;;10.99;78.66;92136.31;2045881;70;20598;-77
2023/10/22 04:24:55;;;;;;;0.80;0.20;;;;;;;10.98;78.28;92139.78;2045289;70;20206;-77
2023/10/22 04:27:20;;;;;;;1.70;0.40;;;;;;;11.02;78.38;92134.34;2045134;70;20139;-78
2023/10/22 04:29:48;;;;;;;0.45;0.30;;;;;;;10.71;80.70;92134.91;2045861;70;20139;-77
2023/10/22 04:32:15;;;;;;;0.10;0.10;;;;;;;10.86;79.88;92131.47;2045825;70;20222;-77
2023/10/22 04:34:40;;;;;;;0.98;0.30;;;;;;;10.90;79.11;92132.41;2045023;70;20235;-76
2023/10/22 04:37:07;;;;;;;0.10;0.10;;;;;;;10.99;78.60;92136.31;2045790;70;20161;-74
2023/10/22 04:39:33;;;;;;;0.20;0.20;;;;;;;10.90;79.08;92134.47;2045762;70;20181;-76
2023/10/22 04:41:58;;;;;;;0.30;0.22;;;;;;;10.96;79.15;92145.31;2045980;70;20170;-75
2023/10/22 04:44:24;;;;;;;0.10;0.10;;;;;;;10.95;78.94;92147.41;2045733;70;20147;-76
2023/10/22 04:46:51;;;;;;;0.32;0.20;;;;;;;10.91;78.71;92147.94;2045692;70;20141;-76
2023/10/22 04:49:17;;;;;;;0.40;0.20;;;;;;;10.90;78.99;92146.47;2046091;70;20155;-76
2023/10/22 04:51:43;;;;;;;2.30;0.30;;;;;;;10.96;78.64;92153.78;2045455;70;20154;-77
2023/10/22 04:54:10;;;;;;;0.50;0.32;;;;;;;10.92;78.96;92143.03;2045268;70;20139;-75
2023/10/22 04:56:36;;;;;;;0.25;0.20;;;;;;;11.00;78.50;92159.63;2045795;70;20154;-75
2023/10/22 04:59:01;;;;;;;0.70;0.30;;;;;;;10.86;78.86;92149.09;2045790;70;20194;-76
2023/10/22 05:01:27;;;;;;;1.20;0.30;;;;;;;10.92;79.45;92148.66;2045816;70;20157;-76
2023/10/22 05:03:53;;;;;;;0.50;0.40;;;;;;;10.93;79.31;92147.28;2045825;70;20174;-76
2023/10/22 05:06:19;;;;;;;1.48;0.47;;;;;;;10.94;78.72;92145.94;2045184;70;20211;-76
2023/10/22 05:08:46;;;;;;;1.67;1.10;;;;;;;10.90;78.79;92142.91;2045838;70;20518;-76
2023/10/22 05:11:13;;;;;;;3.17;1.55;;;;;;;10.88;78.13;92149.19;2045958;70;20155;-76
2023/10/22 05:13:39;;;;;;;5.18;3.03;;;;;;;10.93;78.13;92144.47;2045709;70;20605;-76
2023/10/22 05:16:05;;;;;;;2.75;1.88;;;;;;;10.92;78.33;92148.66;2045827;70;20143;-75
2023/10/22 05:18:31;;;;;;;3.25;1.10;;;;;;;10.88;78.97;92154.81;2045528;70;20154;-77
2023/10/22 05:21:04;;;;;;;0.88;0.60;;;;;;;10.91;79.62;92162.00;2045868;70;20182;-76
2023/10/22 05:23:31;;;;;;;3.28;0.50;;;;;;;10.96;78.51;92157.31;2045743;70;20230;-77
2023/10/22 05:26:17;;;;;;;1.02;0.75;;;;;;;10.64;79.86;92159.94;2045327;70;20165;-76
2023/10/22 05:28:43;;;;;;;1.00;0.77;;;;;;;10.56;80.04;92156.69;2045331;70;20230;-77
2023/10/22 05:31:18;;;;;;;0.70;0.70;;;;;;;10.74;79.74;92165.34;2045869;70;20147;-77
2023/10/22 05:33:44;;;;;;;1.05;0.70;;;;;;;10.79;79.56;92166.28;2045760;70;20178;-77
2023/10/22 05:36:20;;;;;;;1.63;0.80;;;;;;;10.78;79.56;92171.19;2045856;70;20139;-77
2023/10/22 05:38:49;;;;;;;1.27;0.90;;;;;;;10.83;79.34;92172.84;2045793;70;20166;-76
2023/10/22 05:41:26;;;;;;;0.75;0.75;;;;;;;10.81;79.29;92169.94;2045743;70;20166;-76
2023/10/22 05:43:59;;;;;;;0.98;0.60;;;;;;;10.89;78.55;92173.16;2045474;70;20507;-77
2023/10/22 05:46:25;;;;;;;0.68;0.68;;;;;;;10.91;78.20;92184.53;2045918;70;20146;-76
2023/10/22 05:48:51;;;;;;;1.10;0.95;;;;;;;10.91;78.83;92189.44;2045667;70;20151;-76
2023/10/22 05:51:17;;;;;;;1.30;0.70;;;;;;;10.80;79.72;92185.34;2045791;70;20147;-77
2023/10/22 05:53:44;;;;;;;0.98;0.60;;;;;;;10.78;79.77;92190.91;2045339;70;20150;-77
2023/10/22 05:56:10;;;;;;;0.70;0.55;;;;;;;10.81;79.61;92195.28;2045525;70;20154;-77
2023/10/22 05:58:37;;;;;;;0.68;0.68;;;;;;;10.88;79.13;92201.94;2045438;70;20147;-77
2023/10/22 06:01:02;;;;;;;3.75;0.90;;;;;;;10.83;79.39;92203.09;2045000;70;20579;-76
2023/10/22 06:03:28;;;;;;;1.75;1.20;;;;;;;10.84;79.35;92208.09;2045565;70;20143;-76
2023/10/22 06:05:54;;;;;;;1.70;1.33;;;;;;;10.80;79.56;92213.50;2045245;70;20139;-76
2023/10/22 06:08:20;;;;;;;1.67;1.30;;;;;;;10.87;79.27;92206.13;2045485;70;20226;-76
2023/10/22 06:10:46;;;;;;;2.70;1.30;;;;;;;10.88;79.36;92213.22;2045449;70;20579;-77
2023/10/22 06:13:14;;;;;;;1.48;1.20;;;;;;;10.76;78.66;92206.94;2045678;70;20139;-77
2023/10/22 06:15:42;;;;;;;1.40;0.95;;;;;;;10.69;80.23;92214.34;2045666;70;20143;-77
2023/10/22 06:18:08;;;;;;;2.95;1.20;;;;;;;10.72;80.42;92215.94;2045623;70;20247;-76
2023/10/22 06:20:35;;;;;;;2.88;1.85;;;;;;;10.78;80.39;92212.69;2045622;70;20190;-77
2023/10/22 06:23:02;;;;;;;1.45;1.15;;;;;;;10.89;79.21;92223.13;2045976;70;20182;-77
2023/10/22 06:25:28;;;;;;;1.73;0.80;;;;;;;10.92;79.11;92233.13;2045735;70;20163;-77
2023/10/22 06:27:55;;;;;;;1.05;0.90;;;;;;;10.91;80.01;92229.59;2046000;70;20150;-78
2023/10/22 06:30:25;;;;;;;2.95;1.00;;;;;;;11.04;78.93;92233.78;2045965;70;20578;-77
2023/10/22 06:32:52;;;;;;;1.30;1.02;;;;;;;11.06;78.98;92236.69;2046042;70;20139;-78
2023/10/22 06:35:19;;;;;;;3.13;1.20;;;;;;;11.08;78.91;92241.69;2046121;70;20168;-77
2023/10/22 06:37:50;;;;;;;3.05;1.33;;;;;;;11.25;78.21;92251.69;2046134;70;20135;-77
2023/10/22 06:40:17;;;;;;;1.80;1.30;;;;;;;11.23;78.64;92257.25;2048161;70;20143;-77
2023/10/22 06:42:42;;;;;;;1.70;1.10;;;;;;;11.31;78.79;92263.28;2046124;70;20163;-77
2023/10/22 06:45:09;;;;;;;1.60;1.38;;;;;;;11.39;78.86;92270.06;2046110;70;20147;-77
2023/10/22 06:47:36;;;;;;;1.92;1.45;;;;;;;11.48;77.81;92278.94;2045806;70;20674;-77
2023/10/22 06:50:05;;;;;;;5.40;3.10;;;;;;;11.34;78.75;92271.22;2045825;70;20158;-77
2023/10/22 06:52:31;;;;;;;5.80;2.85;;;;;;;11.44;78.52;92288.63;2045792;70;20159;-75
2023/10/22 06:54:56;;;;;;;2.83;2.50;;;;;;;11.24;80.02;92292.50;2045748;70;20169;-76
2023/10/22 06:57:22;;;;;;;2.65;1.05;;;;;;;10.84;80.69;92286.22;2045718;70;20611;-77
2023/10/22 06:59:48;;;;;;;1.58;1.40;;;;;;;11.25;78.61;92291.88;2045893;70;20231;-77
2023/10/22 07:02:15;;;;;;;2.38;1.55;;;;;;;11.45;77.81;92292.94;2045741;70;20636;-77
2023/10/22 07:04:42;;;;;;;2.10;1.30;;;;;;;11.54;77.47;92284.88;2046220;70;20615;-76
2023/10/22 07:07:08;;;;;;;1.50;1.40;;;;;;;11.49;77.58;92269.84;2048401;70;20670;-76
2023/10/22 07:09:33;;;;;;;1.63;1.15;;;;;;;11.73;77.84;92292.16;2046142;70;20262;-76
2023/10/22 07:11:59;;;;;;;1.63;1.38;;;;;;;11.84;77.50;92289.25;2046476;70;20207;-77
2023/10/22 07:14:26;;;;;;;1.30;1.20;;;;;;;11.85;77.24;92299.16;2046159;70;20582;-76
2023/10/22 07:16:52;;;;;;;1.50;1.40;;;;;;;11.93;76.85;92299.56;2045892;70;20230;-76
2023/10/22 07:19:17;;;;;;;3.08;1.30;;;;;;;11.73;77.63;92294.97;2045948;70;20158;-77
2023/10/22 07:21:44;;;;;;;3.10;1.35;;;;;;;11.76;77.37;92294.44;2045342;70;20161;-76
2023/10/22 07:24:09;;;;;;;1.50;1.38;;;;;;;11.84;77.23;92300.53;2045426;70;20541;-76
2023/10/22 07:26:35;;;;;;;1.83;1.50;;;;;;;12.04;76.04;92294.41;2045474;70;20681;-76
2023/10/22 07:29:01;;;;;;;2.17;1.80;;;;;;;11.86;76.71;92302.72;2045762;70;20153;-77
2023/10/22 07:31:26;;;;;;;2.00;1.80;;;;;;;12.14;76.61;92304.13;2045602;70;20510;-76
2023/10/22 07:33:52;;;;;;;5.53;1.95;;;;;;;12.12;76.57;92317.38;2045856;70;20214;-77
2023/10/22 07:36:19;;;;;;;2.80;1.67;;;;;;;11.83;75.93;92315.25;2045968;70;20186;-78
2023/10/22 07:38:44;;;;;;;4.20;2.72;;;;;;;11.72;77.95;92319.63;2046046;70;20262;-79
2023/10/22 07:41:14;;;;;;;9.35;4.25;;;;;;;11.52;77.10;92316.50;2045917;70;20226;-77
2023/10/22 07:43:40;;;;;;;2.25;1.83;;;;;;;11.89;76.17;92333.22;2045729;70;20150;-77
2023/10/22 07:46:07;;;;;;;2.40;1.73;;;;;;;11.19;77.95;92334.56;2045349;70;20189;-77
2023/10/22 07:48:33;;;;;;;2.17;1.38;;;;;;;10.91;78.84;92330.25;2042420;70;20154;-76
2023/10/22 07:51:27;;;;;;;2.65;1.23;;;;;;;11.11;78.27;92331.31;2045751;70;20143;-77
2023/10/22 07:53:52;;;;;;;2.40;1.10;;;;;;;11.49;77.64;92340.31;2045508;70;20135;-78
2023/10/22 07:56:18;;;;;;;2.05;1.48;;;;;;;11.47;77.02;92343.03;2047902;70;20161;-75
2023/10/22 07:58:44;;;;;;;2.75;1.40;;;;;;;11.88;75.35;92348.69;2045205;70;20234;-77
2023/10/22 08:01:09;;;;;;;2.55;1.60;;;;;;;12.34;74.50;92349.53;2045839;70;20158;-75
2023/10/22 08:03:35;;;;;;;3.47;1.60;;;;;;;12.03;75.29;92350.09;2045887;70;20157;-76
2023/10/22 08:06:04;;;;;;;3.20;1.75;;;;;;;12.07;75.23;92341.84;2045843;70;20133;-77
2023/10/22 08:08:30;;;;;;;2.17;1.40;;;;;;;12.06;74.44;92356.59;2045693;70;20518;-76
2023/10/22 08:10:58;;;;;;;4.35;1.33;;;;;;;12.52;72.06;92352.50;2042431;70;20177;-75
2023/10/22 08:13:24;;;;;;;1.27;1.15;;;;;;;12.61;71.12;92348.69;2045748;70;20154;-75
2023/10/22 08:15:49;;;;;;;2.25;1.52;;;;;;;12.18;73.09;92354.34;2045460;70;20143;-74
2023/10/22 08:18:15;;;;;;;1.67;1.38;;;;;;;12.82;70.09;92355.28;2045253;70;20139;-76
2023/10/22 08:20:41;;;;;;;3.47;2.35;;;;;;;12.91;70.62;92349.38;2045738;70;20221;-76
2023/10/22 08:23:07;;;;;;;6.50;4.43;;;;;;;12.31;73.34;92350.03;2045374;70;20234;-74
2023/10/22 08:25:33;;;;;;;9.35;7.63;;;;;;;12.71;72.23;92343.53;2046113;70;20146;-75
2023/10/22 08:27:59;;;;;;;7.50;5.50;;;;;;;12.98;72.35;92356.06;2045703;70;20206;-75
2023/10/22 08:30:24;;;;;;;2.83;2.20;;;;;;;13.34;71.31;92357.03;2046008;70;20190;-75
2023/10/22 08:32:50;;;;;;;3.15;2.25;;;;;;;13.31;69.61;92358.28;2045525;70;20189;-76
2023/10/22 08:35:16;;;;;;;3.53;2.10;;;;;;;13.31;69.45;92363.22;2045740;70;20131;-75
2023/10/22 08:37:42;;;;;;;4.28;2.70;;;;;;;13.19;69.64;92358.47;2047868;70;20182;-75
2023/10/22 08:40:08;;;;;;;3.28;2.35;;;;;;;13.60;69.00;92363.09;2045721;70;20227;-76
2023/10/22 08:42:35;;;;;;;3.40;2.50;;;;;;;13.68;67.55;92362.75;2047660;70;20546;-75
2023/10/22 08:45:05;;;;;;;3.30;2.40;;;;;;;13.95;67.07;92365.34;2045031;70;20143;-76
2023/10/22 08:47:33;;;;;;;5.20;2.38;;;;;;;14.06;66.74;92368.59;2045819;70;20167;-76
2023/10/22 08:50:01;;;;;;;3.35;2.90;;;;;;;14.23;66.47;92367.94;2045748;70;20143;-75
2023/10/22 08:52:27;;;;;;;3.95;3.00;;;;;;;13.79;67.04;92372.41;2045220;70;20238;-76
2023/10/22 08:54:53;;;;;;;3.17;2.45;;;;;;;14.47;66.16;92365.38;2045561;70;20131;-75
2023/10/22 08:57:21;;;;;;;3.00;2.13;;;;;;;13.91;67.36;92364.44;2045010;70;20177;-76
2023/10/22 08:59:48;;;;;;;3.15;1.90;;;;;;;14.12;65.56;92361.13;2045675;70;20227;-75
2023/10/22 09:02:16;;;;;;;3.42;1.95;;;;;;;14.44;66.36;92350.41;2045509;70;20173;-75
2023/10/22 09:04:42;;;;;;;3.53;2.38;;;;;;;14.58;67.09;92358.06;2045554;70;20238;-75
2023/10/22 09:07:09;;;;;;;3.28;2.10;;;;;;;14.37;66.13;92360.00;2045751;70;20173;-75
2023/10/22 09:09:36;;;;;;;1.85;1.70;;;;;;;14.27;66.39;92348.28;2045679;70;20178;-76
2023/10/22 09:12:03;;;;;;;5.18;1.90;;;;;;;14.36;67.18;92352.91;2045149;70;20154;-76
2023/10/22 09:14:30;;;;;;;3.35;1.80;;;;;;;15.13;65.81;92355.28;2045474;70;20162;-75
2023/10/22 09:16:56;;;;;;;3.20;1.75;;;;;;;14.55;65.09;92345.91;2045532;70;20159;-75
2023/10/22 09:19:41;;;;;;;2.40;2.00;;;;;;;15.93;63.77;92350.44;2045605;70;20146;-76
2023/10/22 09:22:23;;;;;;;2.78;2.10;;;;;;;16.57;61.64;92359.00;2045295;70;20215;-78
2023/10/22 09:24:52;;;;;;;3.58;1.70;;;;;;;17.35;59.33;92347.97;2044900;70;20139;-77
2023/10/22 09:27:28;;;;;;;1.77;1.50;;;;;;;17.30;58.48;92354.22;2045355;70;20159;-75
2023/10/22 09:29:58;;;;;;;2.42;2.10;;;;;;;17.78;57.81;92358.53;2045966;70;20174;-77
2023/10/22 09:32:24;;;;;;;3.20;2.60;;;;;;;17.52;58.75;92352.03;2045750;70;20178;-75
2023/10/22 09:34:50;;;;;;;5.72;2.90;;;;;;;18.07;57.25;92356.47;2045066;70;20139;-78
2023/10/22 09:37:15;;;;;;;3.40;3.05;;;;;;;18.07;55.58;92350.06;2045504;70;20159;-76
2023/10/22 09:39:44;;;;;;;4.70;3.20;;;;;;;18.40;55.60;92357.34;2045678;70;20150;-77
2023/10/22 09:42:12;;;;;;;3.17;2.40;;;;;;;18.23;55.46;92353.34;2045482;70;20268;-76
2023/10/22 09:44:40;;;;;;;4.25;2.10;;;;;;;18.57;55.10;92347.09;2045201;70;20211;-76
2023/10/22 09:47:07;;;;;;;2.13;1.80;;;;;;;18.99;54.36;92350.31;2047649;70;20682;-73
2023/10/22 09:49:35;;;;;;;1.63;1.52;;;;;;;19.57;53.24;92352.34;2045450;70;20178;-75
2023/10/22 09:52:03;;;;;;;1.30;1.00;;;;;;;18.98;50.90;92358.13;2044976;70;20174;-73
2023/10/22 09:54:42;;;;;;;3.35;1.50;;;;;;;19.82;51.17;92357.19;2045186;70;20139;-74
2023/10/22 09:57:17;;;;;;;4.65;3.42;;;;;;;19.94;51.68;92360.31;2045937;70;20154;-74
2023/10/22 09:59:44;;;;;;;1.90;1.20;;;;;;;20.39;51.02;92361.19;2048433;70;20146;-74
2023/10/22 10:02:17;;;;;;;1.17;0.98;;;;;;;18.77;51.71;92359.75;2046176;70;20119;-75
2023/10/22 10:04:44;;;;;;;1.35;1.10;;;;;;;21.19;48.66;92354.75;2046149;70;20151;-76
2023/10/22 10:07:10;;;;;;;1.73;1.42;;;;;;;21.05;46.87;92349.50;2046010;70;20136;-75
2023/10/22 10:09:36;;;;;;;1.95;1.58;;;;;;;19.80;47.63;92325.75;2045996;70;20526;-75
2023/10/22 10:12:08;;;;;;;1.60;1.50;;;;;;;21.19;47.56;92343.28;2045682;70;20151;-75
2023/10/22 10:14:41;;;;;;;1.80;1.05;;;;;;;22.70;43.91;92356.03;2045730;70;20175;-75
2023/10/22 10:17:08;;;;;;;;;;;;;;;23.44;42.81;92352.41;2046089;70;20171;-78
2023/10/22 10:19:33;;;;;;;0.93;0.88;;;;;;;22.94;43.07;92364.19;2045208;70;20180;-78
2023/10/22 10:21:59;;;;;;;1.02;0.93;;;;;;;23.39;40.48;92356.69;2045837;70;20246;-76
2023/10/22 10:24:26;;;;;;;1.75;0.70;;;;;;;24.32;41.28;92353.66;2045894;70;20149;-76
2023/10/22 10:27:12;;;;;;;1.00;0.90;;;;;;;24.45;39.16;92356.59;2045635;70;20226;-78
2023/10/22 10:29:39;;;;;;;1.20;1.10;;;;;;;24.28;40.81;92347.91;2045819;70;20143;-76
2023/10/22 10:32:13;;;;;;;1.00;0.90;;;;;;;25.98;38.21;92348.13;2045261;70;20174;-76
2023/10/22 10:34:41;;;;;;;1.40;1.00;;;;;;;25.95;37.54;92350.31;2045886;70;20147;-77
2023/10/22 10:37:12;;;;;;;0.85;0.80;;;;;;;24.80;39.92;92337.28;2046095;70;20246;-77
2023/10/22 10:40:08;;;;;;;1.25;1.02;;;;;;;24.41;40.81;92342.22;2050648;70;20138;-75
2023/10/22 10:42:33;;;;;;;0.82;0.82;;;;;;;25.24;39.02;92347.44;2051946;70;20134;-74
2023/10/22 10:45:00;;;;;;;0.95;0.85;;;;;;;25.70;37.99;92348.88;2052443;70;20139;-75
2023/10/22 10:47:29;;;;;;;0.80;0.80;;;;;;;28.10;36.82;92352.66;2052654;69;20158;-75
2023/10/22 10:50:05;;;;;;;0.65;0.65;;;;;;;27.73;34.91;92350.13;2051903;70;20162;-74
2023/10/22 10:52:34;;;;;;;0.70;0.70;;;;;;;25.76;36.01;92340.25;2052057;70;20146;-75
2023/10/22 10:55:15;;;;;;;0.60;0.60;;;;;;;26.15;36.57;92340.88;2054420;69;20479;-74
2023/10/22 10:57:49;;;;;;;0.55;0.50;;;;;;;27.59;33.30;92339.38;2052255;70;20138;-76
2023/10/22 11:00:30;;;;;;;0.82;0.50;;;;;;;30.91;30.58;92346.94;2054833;69;20209;-77
2023/10/22 11:02:58;;;;;;;0.50;0.50;;;;;;;30.59;31.15;92346.13;2054624;70;20624;-78
2023/10/22 11:05:42;;;;;;;0.85;0.50;;;;;;;28.77;32.49;92346.13;2052316;69;20554;-77
2023/10/22 11:08:18;;;;;;;0.43;0.40;;;;;;;30.56;29.24;92350.53;2052453;70;20218;-75
2023/10/22 11:10:45;;;;;;;0.47;0.47;;;;;;;29.40;31.65;92343.81;2048264;69;20531;-76
2023/10/22 11:13:12;;;;;;;2.78;0.50;;;;;;;30.30;29.62;92348.88;2048222;70;20155;-75
2023/10/22 11:15:42;;;;;;;0.50;0.50;;;;;;;30.61;29.77;92346.09;2049007;70;20159;-74
2023/10/22 11:18:25;;;;;;;0.50;0.50;;;;;;;31.24;31.90;92344.75;2052195;70;20151;-75
2023/10/22 11:20:57;;;;;;;1.20;0.60;;;;;;;31.72;28.33;92345.13;2052076;70;20214;-73
2023/10/22 11:23:24;;;;;;;1.58;0.57;;;;;;;33.43;28.79;92336.13;2048259;70;20186;-74
2023/10/22 11:25:50;;;;;;;1.42;0.40;;;;;;;31.85;28.63;92339.75;2048475;70;20138;-78
2023/10/22 11:28:16;;;;;;;0.30;0.30;;;;;;;37.16;24.55;92333.78;2047779;70;20598;-75
2023/10/22 11:30:42;;;;;;;0.35;0.35;;;;;;;34.35;27.63;92333.88;2048420;70;20153;-76
2023/10/22 11:33:11;;;;;;;0.40;0.40;;;;;;;32.55;26.57;92324.13;2048872;70;20526;-79
2023/10/22 11:35:37;;;;;;;0.55;0.20;;;;;;;34.10;25.06;92328.88;2049374;70;20518;-77
2023/10/22 11:38:04;;;;;;;0.25;0.25;;;;;;;37.48;23.52;92319.84;2048917;70;20527;-81